createdAt,value
2019-05-10T00:17:00.379Z,78.15
2019-05-10T00:31:33.546Z,158.00
2019-05-10T01:07:25.000Z,43.98
2019-05-10T01:12:55.254Z,59.15
2019-05-10T01:15:23.850Z,71.33
2019-05-10T01:17:50.869Z,66.10
2019-05-10T01:20:18.105Z,39.42
2019-05-10T01:22:45.190Z,66.82
2019-05-10T01:25:12.084Z,21.27
2019-05-10T03:26:51.098Z,32.48
2019-05-10T03:29:11.293Z,27.75
2019-05-10T03:31:40.161Z,50.17
2019-05-10T03:34:07.033Z,58.13
2019-05-10T03:36:33.700Z,34.18
2019-05-10T03:39:00.675Z,44.40
2019-05-10T03:41:34.388Z,68.33
2019-05-10T03:44:01.358Z,80.77
2019-05-10T03:46:28.383Z,51.83
2019-05-10T03:48:55.193Z,61.33
2019-05-10T04:44:10.398Z,44.73
2019-05-10T04:52:37.191Z,83.27
2019-05-10T05:01:14.461Z,54.80
2019-05-10T05:09:49.466Z,43.00
2019-05-10T05:27:25.146Z,46.88
2019-05-10T05:29:51.706Z,34.23
2019-05-10T05:32:18.264Z,21.42
2019-05-10T05:34:44.851Z,30.40
2019-05-10T05:37:11.384Z,48.08
2019-05-10T05:39:37.964Z,52.98
2019-05-10T05:42:04.525Z,27.60
2019-05-10T05:44:31.145Z,32.08
2019-05-10T05:46:58.698Z,32.70
2019-05-10T05:49:25.241Z,40.40
2019-05-10T05:51:51.799Z,40.98
2019-05-10T05:54:20.702Z,44.65
2019-05-10T05:56:50.854Z,36.35
2019-05-10T05:59:17.511Z,29.25
2019-05-10T06:01:45.191Z,27.40
2019-05-10T06:04:12.778Z,26.60
2019-05-10T06:06:39.436Z,26.57
2019-05-10T06:09:06.504Z,21.73
2019-05-10T06:11:35.821Z,26.00
2019-05-10T06:14:10.387Z,24.18
2019-05-10T06:16:31.355Z,22.85
2019-05-10T06:18:57.907Z,19.82
2019-05-10T06:21:28.373Z,26.42
2019-05-10T06:23:54.951Z,31.40
2019-05-10T06:26:28.160Z,31.87
2019-05-10T06:29:01.316Z,20.95
2019-05-10T06:31:18.342Z,22.87
2019-05-10T06:33:46.682Z,24.23
2019-05-10T06:36:13.985Z,21.33
2019-05-10T06:38:40.550Z,19.73
2019-05-10T06:41:10.157Z,21.27
2019-05-10T06:43:35.474Z,24.47
2019-05-10T06:46:02.131Z,21.62
2019-05-10T06:48:33.286Z,21.15
2019-05-10T06:50:57.030Z,29.48
2019-05-10T06:53:23.620Z,40.28
2019-05-10T06:55:50.233Z,24.18
2019-05-10T06:58:17.787Z,22.30
2019-05-10T07:00:45.415Z,20.75
2019-05-10T07:03:12.764Z,23.62
2019-05-10T07:05:39.286Z,20.05
2019-05-10T07:08:15.060Z,21.65
2019-05-10T07:10:34.205Z,19.70
2019-05-10T07:13:03.684Z,20.15
2019-05-10T07:15:29.072Z,21.60
2019-05-10T07:17:55.613Z,19.67
2019-05-10T07:20:23.822Z,18.30
2019-05-10T07:22:50.485Z,16.82
2019-05-10T07:25:18.219Z,17.50
2019-05-10T07:27:44.865Z,17.37
2019-05-10T07:30:12.027Z,17.48
2019-05-10T07:32:38.627Z,16.02
2019-05-10T07:35:05.452Z,14.65
2019-05-10T07:37:32.098Z,13.35
2019-05-10T07:39:58.644Z,14.65
2019-05-10T07:42:25.286Z,14.23
2019-05-10T07:44:51.866Z,15.43
2019-05-10T07:47:18.418Z,15.95
2019-05-10T07:49:45.065Z,15.53
2019-05-10T07:52:11.712Z,11.18
2019-05-10T07:54:45.483Z,11.22
2019-05-10T07:57:06.763Z,15.35
2019-05-10T07:59:49.567Z,11.57
2019-05-10T08:02:09.758Z,11.18
2019-05-10T08:04:33.549Z,12.40
2019-05-10T08:06:59.724Z,12.47
2019-05-10T08:09:26.542Z,11.85
2019-05-10T08:11:53.959Z,13.13
2019-05-10T08:14:24.943Z,9.63
2019-05-10T08:16:58.140Z,10.78
2019-05-10T08:19:18.270Z,12.18
2019-05-10T08:21:48.667Z,11.65
2019-05-10T08:24:16.533Z,10.05
2019-05-10T08:26:42.643Z,10.18
2019-05-10T08:29:13.396Z,10.43
2019-05-10T08:31:40.871Z,12.68
2019-05-10T08:34:06.769Z,10.72
2019-05-10T08:36:37.166Z,9.45
2019-05-10T08:39:10.395Z,12.37
2019-05-10T08:41:32.679Z,9.80
2019-05-10T08:44:02.380Z,9.63
2019-05-10T08:46:37.240Z,9.60
2019-05-10T08:48:57.228Z,10.05
2019-05-10T08:51:23.794Z,10.72
2019-05-10T08:53:55.833Z,12.03
2019-05-10T08:56:21.685Z,11.20
2019-05-10T08:58:47.274Z,10.50
2019-05-10T09:01:25.806Z,10.03
2019-05-10T09:03:42.305Z,9.18
2019-05-10T09:06:11.711Z,11.20
2019-05-10T09:08:38.163Z,7.65
2019-05-10T09:11:06.971Z,7.45
2019-05-10T09:13:37.215Z,9.45
2019-05-10T09:16:02.381Z,8.95
2019-05-10T09:18:29.239Z,8.65
2019-05-10T09:21:00.488Z,6.40
2019-05-10T09:23:24.193Z,5.62
2019-05-10T09:25:51.868Z,5.62
2019-05-10T09:28:18.723Z,6.55
2019-05-10T09:30:56.465Z,5.97
2019-05-10T09:33:14.654Z,6.50
2019-05-10T09:35:47.043Z,8.03
2019-05-10T09:38:12.279Z,7.78
2019-05-10T09:40:42.503Z,5.28
2019-05-10T09:43:09.696Z,7.10
2019-05-10T09:45:34.979Z,6.53
2019-05-10T09:48:04.182Z,8.48
2019-05-10T09:50:41.029Z,7.62
2019-05-10T09:52:59.108Z,6.58
2019-05-10T09:55:27.846Z,6.22
2019-05-10T09:57:54.140Z,8.48
2019-05-10T10:00:30.371Z,7.92
2019-05-10T10:03:01.575Z,5.53
2019-05-10T10:05:25.372Z,9.00
2019-05-10T10:07:51.925Z,6.40
2019-05-10T10:10:28.581Z,5.92
2019-05-10T10:12:47.584Z,10.50
2019-05-10T10:15:25.290Z,6.12
2019-05-10T10:17:43.927Z,5.40
2019-05-10T10:20:10.877Z,4.15
2019-05-10T10:22:38.275Z,5.12
2019-05-10T10:25:07.166Z,3.67
2019-05-10T10:27:39.507Z,6.55
2019-05-10T10:30:12.789Z,4.58
2019-05-10T10:32:37.627Z,4.42
2019-05-10T10:35:04.590Z,5.78
2019-05-10T10:37:31.497Z,6.15
2019-05-10T10:40:00.695Z,4.22
2019-05-10T10:42:26.457Z,7.12
2019-05-10T10:44:53.093Z,5.47
2019-05-10T10:47:22.801Z,6.03
2019-05-10T10:49:49.907Z,3.87
2019-05-10T10:52:17.227Z,6.03
2019-05-10T10:54:43.955Z,7.90
2019-05-10T10:57:10.606Z,3.45
2019-05-10T10:59:37.446Z,4.20
2019-05-10T11:02:28.914Z,4.75
2019-05-10T11:04:32.971Z,4.45
2019-05-10T11:07:09.795Z,4.28
2019-05-10T11:09:27.854Z,4.67
2019-05-10T11:11:54.416Z,4.87
2019-05-10T11:14:20.971Z,6.42
2019-05-10T11:16:55.460Z,4.15
2019-05-10T11:19:15.988Z,5.22
2019-05-10T11:21:42.537Z,4.25
2019-05-10T11:24:10.449Z,3.42
2019-05-10T11:26:37.551Z,3.42
2019-05-10T11:29:04.108Z,7.12
2019-05-10T11:31:31.280Z,7.47
2019-05-10T11:34:00.917Z,2.67
2019-05-10T11:36:26.415Z,5.25
2019-05-10T11:38:58.375Z,4.12
2019-05-10T11:41:24.611Z,4.25
2019-05-10T11:43:51.346Z,4.92
2019-05-10T11:46:17.929Z,5.53
2019-05-10T11:48:44.518Z,3.35
2019-05-10T11:51:16.005Z,4.15
2019-05-10T11:53:41.476Z,5.30
2019-05-10T11:56:13.617Z,4.75
2019-05-10T11:58:37.572Z,5.72
2019-05-10T12:01:14.831Z,4.67
2019-05-10T12:03:33.134Z,2.98
2019-05-10T12:08:28.008Z,2.17
2019-05-10T12:11:07.300Z,1.95
2019-05-10T12:13:25.020Z,2.75
2019-05-10T12:15:52.230Z,1.85
2019-05-10T12:18:26.341Z,1.17
2019-05-10T12:20:56.540Z,2.20
2019-05-10T12:23:22.785Z,2.77
2019-05-10T12:25:59.254Z,2.45
2019-05-10T12:25:59.930Z,6.22
2019-05-10T12:28:15.469Z,5.30
2019-05-10T12:30:41.157Z,2.83
2019-05-10T12:33:09.881Z,4.25
2019-05-10T12:35:40.850Z,2.55
2019-05-10T12:38:04.506Z,3.10
2019-05-10T12:40:31.511Z,3.83
2019-05-10T12:43:00.549Z,1.02
2019-05-10T12:45:26.804Z,39.42
2019-05-10T12:47:53.370Z,1.35
2019-05-10T12:50:20.528Z,1.95
2019-05-10T12:52:53.121Z,2.42
2019-05-10T12:55:18.004Z,2.12
2019-05-10T12:57:44.999Z,2.35
2019-05-10T13:00:13.099Z,4.15
2019-05-10T13:02:44.838Z,4.20
2019-05-10T13:05:08.842Z,2.70
2019-05-10T13:07:37.056Z,2.25
2019-05-10T13:10:08.286Z,1.98
2019-05-10T13:12:36.914Z,1.85
2019-05-10T13:15:05.539Z,2.20
2019-05-10T13:17:32.161Z,2.05
2019-05-10T13:20:00.018Z,2.80
2019-05-10T13:22:37.105Z,3.08
2019-05-10T13:24:55.515Z,2.52
2019-05-10T13:27:22.094Z,3.17
2019-05-10T13:29:53.494Z,2.87
2019-05-10T13:32:20.707Z,2.65
2019-05-10T13:34:47.431Z,1.12
2019-05-10T13:37:23.064Z,4.78
2019-05-10T13:39:42.451Z,5.55
2019-05-10T13:42:14.845Z,1.98
2019-05-10T13:44:42.791Z,5.78
2019-05-10T13:47:09.975Z,4.25
2019-05-10T13:49:36.669Z,1.70
2019-05-10T13:52:03.468Z,9.08
2019-05-10T13:54:31.333Z,5.87
2019-05-10T13:57:00.472Z,2.72
2019-05-10T13:59:28.388Z,4.10
2019-05-10T14:02:03.360Z,2.45
2019-05-10T14:04:34.097Z,6.08
2019-05-10T14:07:02.695Z,1.95
2019-05-10T14:09:29.388Z,1.82
2019-05-10T14:11:56.108Z,2.05
2019-05-10T14:14:26.770Z,2.05
2019-05-10T14:16:56.049Z,3.27
2019-05-10T14:19:23.644Z,1.32
2019-05-10T14:21:53.139Z,2.65
2019-05-10T14:24:19.916Z,1.65
2019-05-10T14:26:46.480Z,3.33
2019-05-10T14:29:13.162Z,2.02
2019-05-10T14:31:39.789Z,2.87
2019-05-10T14:34:15.315Z,1.98
2019-05-10T14:36:40.740Z,3.92
2019-05-10T14:39:06.620Z,1.05
2019-05-10T14:41:33.323Z,1.87
2019-05-10T14:43:59.931Z,2.15
2019-05-10T14:46:26.463Z,1.30
2019-05-10T14:48:53.208Z,3.20
2019-05-10T14:51:19.886Z,6.87
2019-05-10T14:53:46.534Z,0.85
2019-05-10T14:56:14.141Z,2.50
2019-05-10T14:58:41.512Z,4.40
2019-05-10T15:01:08.286Z,8.93
2019-05-10T15:03:44.879Z,2.50
2019-05-10T15:06:04.146Z,1.62
2019-05-10T15:08:30.694Z,4.08
2019-05-10T15:10:57.496Z,1.45
2019-05-10T15:13:26.077Z,1.57
2019-05-10T15:15:52.414Z,1.80
2019-05-10T15:18:20.593Z,8.28
2019-05-10T15:20:47.198Z,1.00
2019-05-10T15:23:13.844Z,3.65
2019-05-10T15:25:55.821Z,4.17
2019-05-10T15:28:09.067Z,7.00
2019-05-10T15:30:39.426Z,5.58
2019-05-10T15:33:04.381Z,2.60
2019-05-10T15:35:30.968Z,6.97
2019-05-10T15:37:57.932Z,8.80
2019-05-10T15:40:24.534Z,2.30
2019-05-10T15:42:51.316Z,4.22
2019-05-10T15:45:19.426Z,3.40
2019-05-10T15:47:51.101Z,2.45
2019-05-10T15:50:15.534Z,2.75
2019-05-10T15:52:46.301Z,3.10
2019-05-10T15:55:11.377Z,1.35
2019-05-10T15:57:39.341Z,3.80
2019-05-10T16:00:06.741Z,5.22
2019-05-10T16:02:33.837Z,7.00
2019-05-10T16:05:00.748Z,3.22
2019-05-10T16:07:27.264Z,7.97
2019-05-10T16:09:56.050Z,14.15
2019-05-10T16:12:23.850Z,1.80
2019-05-10T16:14:51.167Z,4.25
2019-05-10T16:17:23.026Z,3.20
2019-05-10T16:19:51.057Z,3.45
2019-05-10T16:22:14.471Z,4.20
2019-05-10T16:24:41.023Z,2.85
2019-05-10T16:27:07.593Z,4.65
2019-05-10T16:29:39.755Z,1.37
2019-05-10T16:32:02.755Z,7.28
2019-05-10T16:34:32.289Z,3.05
2019-05-10T16:36:58.119Z,2.40
2019-05-10T16:39:24.711Z,2.35
2019-05-10T16:41:51.304Z,2.17
2019-05-10T16:44:20.907Z,1.05
2019-05-10T16:46:47.394Z,2.50
2019-05-10T16:49:15.564Z,3.70
2019-05-10T16:51:47.050Z,5.87
2019-05-10T16:54:13.479Z,2.35
2019-05-10T16:56:39.301Z,5.20
2019-05-10T16:59:05.963Z,3.95
2019-05-10T17:01:33.591Z,2.25
2019-05-10T17:04:01.892Z,1.87
2019-05-10T17:06:28.627Z,2.72
2019-05-10T17:08:55.206Z,1.85
2019-05-10T17:11:21.894Z,3.92
2019-05-10T17:13:48.507Z,1.37
2019-05-10T17:16:16.875Z,4.47
2019-05-10T17:18:43.678Z,2.22
2019-05-10T17:21:10.226Z,2.00
2019-05-10T17:23:41.462Z,2.35
2019-05-10T17:26:05.360Z,2.58
2019-05-10T17:28:35.380Z,4.70
2019-05-10T17:31:07.566Z,2.22
2019-05-10T17:33:28.805Z,2.83
2019-05-10T17:36:07.523Z,6.00
2019-05-10T17:38:23.889Z,5.85
2019-05-10T17:40:50.451Z,2.37
2019-05-10T17:43:20.502Z,2.27
2019-05-10T17:45:45.364Z,8.63
2019-05-10T17:48:12.929Z,16.48
2019-05-10T17:50:39.511Z,6.33
2019-05-10T17:53:06.058Z,4.03
2019-05-10T17:55:32.732Z,2.95
2019-05-10T17:57:59.379Z,2.40
2019-05-10T18:00:26.049Z,3.47
2019-05-10T18:02:52.610Z,3.85
2019-05-10T18:05:19.167Z,2.02
2019-05-10T18:07:46.149Z,4.45
2019-05-10T18:10:12.916Z,3.42
2019-05-10T18:12:39.447Z,2.37
2019-05-10T18:15:06.826Z,2.42
2019-05-10T18:17:33.384Z,3.08
2019-05-10T18:20:03.926Z,6.85
2019-05-10T18:22:41.790Z,8.78
2019-05-10T18:25:00.119Z,23.87
2019-05-10T18:27:26.711Z,5.87
2019-05-10T18:29:53.285Z,13.98
2019-05-10T18:32:19.878Z,13.70
2019-05-10T18:34:47.359Z,7.47
2019-05-10T18:37:15.882Z,3.58
2019-05-10T18:39:42.679Z,5.55
2019-05-10T18:42:11.035Z,10.23
2019-05-10T18:44:37.610Z,24.65
2019-05-10T18:47:04.607Z,13.58
2019-05-10T18:49:31.166Z,10.20
2019-05-10T18:52:03.899Z,4.40
2019-05-10T18:54:28.827Z,2.83
2019-05-10T18:56:57.956Z,5.28
2019-05-10T18:59:26.642Z,2.27
2019-05-10T19:01:53.226Z,2.55
2019-05-10T19:04:19.933Z,4.75
2019-05-10T19:06:49.982Z,4.28
2019-05-10T19:09:15.019Z,5.80
2019-05-10T19:11:41.646Z,12.75
2019-05-10T19:14:08.283Z,9.78
2019-05-10T19:16:34.844Z,6.60
2019-05-10T19:19:01.798Z,11.68
2019-05-10T19:21:30.784Z,4.58
2019-05-10T19:23:58.475Z,2.87
2019-05-10T19:26:29.468Z,3.75
2019-05-10T19:28:53.408Z,3.58
2019-05-10T19:31:20.108Z,5.28
2019-05-10T19:33:46.776Z,2.95
2019-05-10T19:36:14.710Z,4.62
2019-05-10T19:38:41.451Z,3.90
2019-05-10T19:41:08.181Z,3.22
2019-05-10T19:43:34.748Z,8.05
2019-05-10T19:46:01.413Z,4.95
2019-05-10T19:48:35.141Z,4.33
2019-05-10T19:50:57.436Z,7.10
2019-05-10T19:53:26.244Z,6.65
2019-05-10T19:55:57.223Z,6.87
2019-05-10T19:58:26.494Z,8.50
2019-05-10T20:00:52.223Z,4.97
2019-05-10T20:03:18.919Z,7.87
2019-05-10T20:05:45.486Z,15.60
2019-05-10T20:08:12.152Z,9.78
2019-05-10T20:10:38.994Z,5.92
2019-05-10T20:13:05.565Z,5.37
2019-05-10T20:15:32.270Z,5.33
2019-05-10T20:17:59.117Z,6.28
2019-05-10T20:20:25.961Z,5.67
2019-05-10T20:22:52.546Z,5.00
2019-05-10T20:25:19.195Z,6.95
2019-05-10T20:27:45.870Z,4.47
2019-05-10T20:30:14.353Z,4.00
2019-05-10T20:32:41.497Z,8.28
2019-05-10T20:35:08.608Z,6.42
2019-05-10T20:37:35.199Z,8.23
2019-05-10T20:40:02.882Z,4.53
2019-05-10T20:42:31.106Z,6.95
2019-05-10T20:45:08.017Z,6.08
2019-05-10T20:47:37.643Z,4.55
2019-05-10T20:50:09.459Z,9.43
2019-05-10T20:52:36.877Z,5.30
2019-05-10T20:55:05.039Z,4.72
2019-05-10T20:57:36.271Z,4.65
2019-05-10T21:00:09.912Z,2.15
2019-05-10T21:02:39.750Z,3.45
2019-05-10T21:05:08.956Z,4.87
2019-05-10T21:07:38.061Z,3.08
2019-05-10T21:10:11.964Z,3.05
2019-05-10T21:12:39.356Z,4.15
2019-05-10T21:15:06.466Z,3.90
2019-05-10T21:20:06.510Z,4.95
2019-05-10T21:22:33.439Z,4.78
2019-05-10T21:25:00.231Z,4.17
2019-05-10T21:27:27.017Z,5.80
2019-05-10T21:29:53.571Z,4.58
2019-05-10T21:32:20.150Z,4.33
2019-05-10T21:34:46.873Z,5.70
2019-05-10T21:37:13.439Z,3.10
2019-05-10T21:39:40.011Z,7.00
2019-05-10T21:42:16.955Z,4.35
2019-05-10T21:48:00.100Z,3.12
2019-05-10T21:50:27.066Z,3.05
2019-05-10T21:58:32.157Z,9.08
2019-05-10T22:04:05.380Z,9.30
2019-05-10T22:06:59.550Z,5.10
2019-05-10T22:15:20.096Z,9.20
2019-05-10T22:17:50.635Z,6.37
2019-05-10T22:20:19.674Z,7.28
2019-05-10T22:22:47.429Z,4.80
2019-05-10T22:25:17.236Z,3.92
2019-05-10T22:27:52.108Z,4.58
2019-05-10T22:30:22.323Z,5.43
2019-05-10T22:32:49.605Z,4.35
2019-05-10T22:35:16.361Z,7.58
2019-05-10T22:37:42.966Z,6.30
2019-05-10T22:40:09.823Z,6.28
2019-05-10T22:42:36.478Z,6.78
2019-05-10T22:45:05.542Z,3.40
2019-05-10T22:47:32.132Z,2.70
2019-05-10T22:49:58.804Z,3.77
2019-05-10T22:52:25.384Z,6.60
2019-05-10T22:54:51.961Z,10.88
2019-05-10T22:57:18.548Z,9.33
2019-05-10T22:59:45.226Z,6.83
2019-05-10T23:02:11.816Z,7.87
2019-05-10T23:04:38.487Z,8.40
2019-05-10T23:07:05.068Z,7.08
2019-05-10T23:09:31.860Z,5.95
2019-05-10T23:11:58.418Z,5.83
2019-05-10T23:14:25.118Z,4.92
2019-05-10T23:16:51.677Z,6.12
2019-05-10T23:19:18.360Z,6.78
2019-05-10T23:21:45.062Z,5.58
2019-05-10T23:24:13.549Z,6.87
2019-05-10T23:26:40.259Z,5.28
2019-05-10T23:29:06.847Z,5.37
2019-05-10T23:31:35.424Z,7.55
2019-05-10T23:34:01.765Z,8.65
2019-05-10T23:36:28.441Z,7.42
2019-05-10T23:38:55.003Z,7.60
2019-05-10T23:41:21.693Z,5.50
2019-05-10T23:43:48.282Z,5.83
2019-05-10T23:46:14.842Z,5.95
2019-05-10T23:48:41.475Z,8.75
2019-05-10T23:51:12.356Z,9.48
2019-05-10T23:53:42.423Z,8.03
2019-05-10T23:56:10.093Z,9.10
2019-05-10T23:58:40.394Z,9.38
